createdAt,value
2023-04-18T00:01:56.381Z,5.80
2023-04-18T00:04:25.544Z,3.20
2023-04-18T00:06:53.813Z,4.80
2023-04-18T00:09:22.070Z,5.90
2023-04-18T00:11:50.226Z,6.20
2023-04-18T00:14:20.203Z,12.10
2023-04-18T00:16:48.397Z,7.40
2023-04-18T00:19:16.753Z,4.10
2023-04-18T00:21:46.152Z,9.70
2023-04-18T00:24:14.496Z,8.50
2023-04-18T00:26:43.048Z,8.60
2023-04-18T00:29:11.241Z,5.70
2023-04-18T00:31:39.476Z,7.90
2023-04-18T00:34:07.813Z,10.60
2023-04-18T00:36:36.656Z,6.10
2023-04-18T00:39:04.898Z,4.10
2023-04-18T00:41:33.312Z,6.30
2023-04-18T00:44:01.789Z,5.00
2023-04-18T00:46:30.230Z,4.30
2023-04-18T00:48:58.978Z,5.30
2023-04-18T00:51:28.112Z,4.80
2023-04-18T00:53:56.674Z,10.50
2023-04-18T00:56:26.019Z,4.00
2023-04-18T00:58:54.638Z,7.70
2023-04-18T01:01:23.442Z,10.70
2023-04-18T01:03:52.154Z,10.70
2023-04-18T01:06:20.678Z,6.90
2023-04-18T01:08:49.018Z,8.00
2023-04-18T01:11:19.365Z,6.00
2023-04-18T01:13:59.814Z,3.50
2023-04-18T01:16:29.554Z,4.10
2023-04-18T01:18:57.860Z,7.20
2023-04-18T01:21:27.095Z,5.30
2023-04-18T01:23:55.310Z,5.70
2023-04-18T01:26:23.556Z,7.50
2023-04-18T01:28:51.842Z,9.20
2023-04-18T01:31:20.162Z,10.20
2023-04-18T01:33:48.501Z,7.90
2023-04-18T01:36:17.453Z,6.80
2023-04-18T01:38:45.772Z,8.20
2023-04-18T01:41:13.960Z,10.10
2023-04-18T01:43:43.879Z,9.00
2023-04-18T01:46:12.149Z,9.20
2023-04-18T01:48:40.372Z,7.00
2023-04-18T01:51:08.585Z,3.80
2023-04-18T01:53:37.102Z,6.20
2023-04-18T01:56:05.798Z,11.80
2023-04-18T01:58:34.158Z,9.50
2023-04-18T02:01:02.727Z,8.40
2023-04-18T02:03:31.380Z,11.80
2023-04-18T02:06:01.235Z,6.90
2023-04-18T02:08:31.005Z,8.80
2023-04-18T02:10:59.896Z,6.70
2023-04-18T02:13:28.468Z,18.10
2023-04-18T02:15:58.938Z,7.50
2023-04-18T02:18:27.219Z,12.30
2023-04-18T02:20:55.498Z,9.20
2023-04-18T02:23:23.714Z,12.00
2023-04-18T02:25:51.966Z,8.20
2023-04-18T02:28:20.607Z,9.70
2023-04-18T02:30:49.342Z,9.60
2023-04-18T02:33:17.909Z,8.80
2023-04-18T02:35:46.477Z,9.40
2023-04-18T02:38:15.061Z,7.40
2023-04-18T02:40:43.649Z,6.20
2023-04-18T02:43:11.833Z,7.10
2023-04-18T02:45:40.092Z,8.60
2023-04-18T02:48:08.702Z,7.00
2023-04-18T02:50:37.308Z,9.00
2023-04-18T02:53:05.671Z,12.40
2023-04-18T02:55:44.111Z,12.10
2023-04-18T02:58:12.358Z,6.50
2023-04-18T03:00:58.762Z,6.50
2023-04-18T03:03:46.035Z,7.90
2023-04-18T03:06:27.948Z,8.30
2023-04-18T03:08:57.978Z,5.50
2023-04-18T03:11:26.758Z,8.70
2023-04-18T03:13:55.690Z,6.40
2023-04-18T03:16:24.427Z,11.50
2023-04-18T03:18:52.740Z,6.60
2023-04-18T03:21:22.010Z,9.30
2023-04-18T03:23:50.533Z,6.20
2023-04-18T03:26:18.924Z,12.70
2023-04-18T03:28:47.298Z,9.80
2023-04-18T03:31:16.340Z,5.50
2023-04-18T03:33:45.847Z,9.80
2023-04-18T03:36:25.466Z,10.20
2023-04-18T03:38:55.392Z,8.80
2023-04-18T03:41:25.068Z,7.00
2023-04-18T03:43:53.242Z,5.40
2023-04-18T03:46:22.237Z,6.50
2023-04-18T03:48:51.973Z,8.90
2023-04-18T03:51:20.238Z,7.10
2023-04-18T03:53:48.419Z,10.00
2023-04-18T03:56:18.599Z,8.60
2023-04-18T03:58:50.511Z,9.50
2023-04-18T04:01:19.504Z,11.40
2023-04-18T04:03:47.939Z,9.10
2023-04-18T04:06:17.915Z,5.90
2023-04-18T04:08:46.515Z,5.40
2023-04-18T04:11:15.601Z,11.00
2023-04-18T04:13:43.771Z,11.60
2023-04-18T04:16:13.746Z,15.60
2023-04-18T04:18:42.285Z,13.40
2023-04-18T04:21:10.563Z,8.20
2023-04-18T04:23:46.394Z,9.30
2023-04-18T04:26:23.576Z,7.70
2023-04-18T04:29:00.585Z,12.80
2023-04-18T04:31:29.493Z,7.80
2023-04-18T04:33:57.943Z,14.50
2023-04-18T04:36:27.395Z,10.10
2023-04-18T04:38:57.077Z,8.90
2023-04-18T04:41:32.711Z,8.50
2023-04-18T04:44:01.963Z,7.80
2023-04-18T04:46:34.040Z,6.30
2023-04-18T04:49:04.900Z,5.50
2023-04-18T04:51:33.554Z,9.10
2023-04-18T04:54:01.903Z,13.50
2023-04-18T04:56:30.858Z,23.80
2023-04-18T04:58:59.287Z,9.50
2023-04-18T05:01:36.393Z,12.70
2023-04-18T05:04:05.210Z,16.00
2023-04-18T05:06:33.779Z,15.40
2023-04-18T05:09:01.927Z,15.90
2023-04-18T05:11:30.315Z,13.40
2023-04-18T05:13:59.204Z,10.40
2023-04-18T05:16:27.453Z,9.80
2023-04-18T05:18:55.583Z,14.80
2023-04-18T05:21:26.145Z,12.30
2023-04-18T05:23:54.390Z,16.30
2023-04-18T05:26:22.802Z,10.50
2023-04-18T05:28:51.685Z,14.90
2023-04-18T05:31:19.840Z,25.90
2023-04-18T05:33:48.113Z,12.00
2023-04-18T05:36:16.451Z,15.30
2023-04-18T05:38:44.905Z,15.80
2023-04-18T05:41:13.258Z,15.80
2023-04-18T05:43:42.934Z,19.90
2023-04-18T05:46:12.741Z,10.20
2023-04-18T05:48:41.390Z,9.90
2023-04-18T05:51:11.511Z,17.60
2023-04-18T05:53:40.277Z,9.30
2023-04-18T05:56:08.588Z,12.00
2023-04-18T05:58:50.621Z,11.40
2023-04-18T06:01:19.260Z,15.40
2023-04-18T06:03:47.788Z,14.00
2023-04-18T06:06:16.430Z,17.80
2023-04-18T06:08:44.640Z,14.50
2023-04-18T06:11:15.100Z,12.40
2023-04-18T06:13:43.277Z,13.10
2023-04-18T06:16:12.179Z,9.50
2023-04-18T06:18:40.477Z,24.40
2023-04-18T06:21:08.641Z,18.30
2023-04-18T06:23:38.732Z,11.40
2023-04-18T06:26:07.464Z,18.60
2023-04-18T06:28:35.997Z,12.80
2023-04-18T06:31:04.267Z,17.90
2023-04-18T06:33:33.819Z,20.00
2023-04-18T06:36:01.956Z,11.70
2023-04-18T06:38:33.655Z,9.90
2023-04-18T06:41:01.939Z,18.30
2023-04-18T06:43:30.220Z,15.30
2023-04-18T06:45:59.339Z,11.10
2023-04-18T06:48:27.614Z,16.30
2023-04-18T06:50:56.041Z,12.70
2023-04-18T06:53:24.316Z,13.60
2023-04-18T06:55:52.745Z,15.40
2023-04-18T06:58:21.195Z,18.90
2023-04-18T07:00:52.029Z,16.00
2023-04-18T07:03:20.607Z,15.90
2023-04-18T07:05:50.542Z,13.30
2023-04-18T07:08:18.953Z,15.90
2023-04-18T07:10:47.303Z,16.30
2023-04-18T07:13:16.340Z,12.10
2023-04-18T07:15:44.467Z,8.60
2023-04-18T07:18:16.141Z,12.70
2023-04-18T07:20:49.906Z,8.30
2023-04-18T07:23:18.039Z,18.80
2023-04-18T07:25:46.238Z,16.10
2023-04-18T07:28:14.467Z,10.20
2023-04-18T07:30:42.883Z,19.80
2023-04-18T07:33:26.832Z,12.00
2023-04-18T07:35:54.977Z,16.50
2023-04-18T07:38:23.504Z,15.00
2023-04-18T07:41:00.950Z,13.70
2023-04-18T07:43:29.280Z,9.50
2023-04-18T07:45:57.463Z,21.90
2023-04-18T07:48:26.165Z,11.10
2023-04-18T07:50:54.347Z,15.70
2023-04-18T07:53:22.775Z,9.20
2023-04-18T07:55:51.420Z,13.80
2023-04-18T07:58:20.249Z,15.40
2023-04-18T08:00:48.637Z,12.90
2023-04-18T08:03:17.093Z,7.90
2023-04-18T08:05:46.115Z,10.60
2023-04-18T08:08:14.597Z,15.20
2023-04-18T08:10:42.825Z,7.70
2023-04-18T08:13:13.412Z,18.50
2023-04-18T08:15:41.921Z,14.50
2023-04-18T08:18:10.067Z,15.80
2023-04-18T08:20:38.679Z,11.80
2023-04-18T08:23:10.274Z,26.10
2023-04-18T08:25:39.848Z,12.10
2023-04-18T08:28:09.116Z,17.20
2023-04-18T08:30:37.404Z,26.20
2023-04-18T08:33:05.522Z,18.60
2023-04-18T08:35:35.425Z,10.60
2023-04-18T08:38:03.817Z,9.90
2023-04-18T08:40:32.025Z,12.60
2023-04-18T08:43:00.231Z,15.40
2023-04-18T08:45:28.955Z,14.40
2023-04-18T08:47:59.059Z,10.00
2023-04-18T08:50:27.829Z,14.70
2023-04-18T08:52:56.189Z,13.10
2023-04-18T08:55:24.544Z,14.60
2023-04-18T08:57:56.199Z,14.60
2023-04-18T09:00:24.509Z,16.80
2023-04-18T09:02:57.619Z,12.20
2023-04-18T09:05:27.073Z,10.00
2023-04-18T09:07:56.256Z,12.10
2023-04-18T09:10:34.440Z,13.90
2023-04-18T09:13:05.985Z,13.40
2023-04-18T09:15:34.779Z,9.70
2023-04-18T09:18:03.498Z,13.80
2023-04-18T09:20:41.103Z,13.10
2023-04-18T09:23:16.457Z,11.90
2023-04-18T09:25:46.881Z,11.70
2023-04-18T09:28:30.041Z,9.30
2023-04-18T09:31:07.609Z,8.60
2023-04-18T09:33:37.279Z,14.70
2023-04-18T09:36:27.324Z,12.10
2023-04-18T09:38:57.237Z,9.20
2023-04-18T09:41:25.857Z,15.50
2023-04-18T09:44:09.718Z,20.40
2023-04-18T09:46:39.756Z,19.60
2023-04-18T09:49:10.827Z,15.90
2023-04-18T09:51:39.611Z,11.80
2023-04-18T09:54:08.082Z,18.00
2023-04-18T09:56:37.449Z,15.40
2023-04-18T09:59:09.385Z,10.90
2023-04-18T10:01:38.114Z,9.40
2023-04-18T10:04:09.812Z,8.50
2023-04-18T10:06:39.919Z,14.30
2023-04-18T10:09:08.950Z,10.80
2023-04-18T10:11:37.217Z,14.50
2023-04-18T10:14:14.951Z,11.90
2023-04-18T10:16:45.687Z,22.80
2023-04-18T10:19:28.594Z,10.10
2023-04-18T10:21:58.946Z,14.50
2023-04-18T10:24:57.075Z,12.60
2023-04-18T10:28:00.418Z,18.90
2023-04-18T10:30:41.042Z,19.20
2023-04-18T10:33:30.303Z,12.10
2023-04-18T10:36:08.913Z,11.90
2023-04-18T10:38:45.449Z,12.10
2023-04-18T10:41:27.630Z,20.80
2023-04-18T10:44:23.003Z,24.10
2023-04-18T10:46:51.856Z,16.50
2023-04-18T10:49:22.870Z,12.30
2023-04-18T10:51:58.490Z,12.50
2023-04-18T10:54:39.916Z,21.00
2023-04-18T10:57:10.223Z,13.60
2023-04-18T10:59:39.574Z,17.70
2023-04-18T11:02:30.946Z,14.10
2023-04-18T11:05:00.494Z,21.80
2023-04-18T11:07:34.579Z,14.60
2023-04-18T11:10:04.083Z,14.20
2023-04-18T11:12:34.681Z,16.00
2023-04-18T11:15:17.884Z,24.90
2023-04-18T11:17:46.001Z,11.20
2023-04-18T11:20:15.104Z,13.60
2023-04-18T11:22:46.613Z,34.20
2023-04-18T11:25:16.498Z,23.80
2023-04-18T11:27:45.670Z,18.20
2023-04-18T11:30:14.728Z,15.10
2023-04-18T11:32:44.110Z,17.10
2023-04-18T11:35:13.581Z,21.10
2023-04-18T11:37:43.403Z,21.40
2023-04-18T11:40:12.493Z,29.20
2023-04-18T11:42:41.596Z,19.80
2023-04-18T11:45:12.385Z,25.40
2023-04-18T11:47:42.935Z,14.30
2023-04-18T11:50:12.404Z,18.80
2023-04-18T11:52:41.718Z,16.20
2023-04-18T11:55:24.055Z,24.10
2023-04-18T11:57:53.446Z,18.20
2023-04-18T12:00:39.080Z,15.50
2023-04-18T12:03:15.706Z,10.50
2023-04-18T12:08:18.557Z,22.90
2023-04-18T12:10:51.228Z,13.70
2023-04-18T12:13:24.940Z,16.30
2023-04-18T12:15:54.257Z,17.00
2023-04-18T12:18:24.895Z,35.40
2023-04-18T12:20:56.929Z,62.20
2023-04-18T12:23:37.208Z,39.80
2023-04-18T12:26:08.749Z,38.40
2023-04-18T12:28:37.844Z,21.00
2023-04-18T12:31:07.606Z,16.90
2023-04-18T12:33:38.437Z,18.90
2023-04-18T12:36:08.727Z,22.70
2023-04-18T12:38:37.423Z,25.70
2023-04-18T12:41:06.512Z,21.60
2023-04-18T12:43:34.996Z,15.20
2023-04-18T12:46:03.486Z,14.40
2023-04-18T12:48:31.850Z,13.10
2023-04-18T12:51:00.047Z,14.20
2023-04-18T12:53:28.221Z,11.00
2023-04-18T12:55:56.610Z,14.20
2023-04-18T12:58:24.859Z,14.60
2023-04-18T13:00:53.319Z,14.60
2023-04-18T13:03:21.780Z,14.80
2023-04-18T13:05:50.163Z,14.30
2023-04-18T13:08:18.508Z,12.60
2023-04-18T13:10:47.835Z,17.20
2023-04-18T13:13:16.304Z,15.80
2023-04-18T13:15:44.515Z,11.70
2023-04-18T13:18:12.699Z,14.90
2023-04-18T13:20:41.570Z,10.40
2023-04-18T13:23:10.262Z,19.90
2023-04-18T13:25:38.951Z,29.00
2023-04-18T13:28:07.124Z,21.40
2023-04-18T13:30:36.027Z,15.50
2023-04-18T13:33:04.548Z,9.80
2023-04-18T13:35:32.891Z,14.90
2023-04-18T13:38:01.279Z,15.70
2023-04-18T13:40:29.447Z,14.50
2023-04-18T13:42:57.957Z,13.20
2023-04-18T13:45:26.290Z,15.80
2023-04-18T13:47:54.807Z,13.90
2023-04-18T13:50:23.500Z,15.50
2023-04-18T13:52:52.173Z,19.80
2023-04-18T13:55:20.306Z,15.70
2023-04-18T13:57:48.658Z,10.60
2023-04-18T14:00:17.704Z,12.30
2023-04-18T14:02:45.999Z,10.80
2023-04-18T14:05:14.740Z,14.70
2023-04-18T14:07:43.305Z,19.90
2023-04-18T14:10:11.769Z,20.30
2023-04-18T14:12:40.588Z,14.60
2023-04-18T14:15:09.579Z,23.90
2023-04-18T14:17:37.904Z,12.80
2023-04-18T14:20:07.969Z,14.40
2023-04-18T14:22:36.088Z,14.20
2023-04-18T14:25:04.813Z,21.50
2023-04-18T14:27:33.749Z,24.90
2023-04-18T14:30:02.161Z,13.60
2023-04-18T14:32:30.849Z,9.30
2023-04-18T14:34:59.409Z,11.70
2023-04-18T14:37:27.902Z,10.70
2023-04-18T14:39:56.286Z,10.00
2023-04-18T14:42:24.446Z,10.10
2023-04-18T14:44:52.538Z,11.10
2023-04-18T14:47:21.014Z,12.20
2023-04-18T14:49:50.402Z,15.60
2023-04-18T14:52:18.811Z,11.90
2023-04-18T14:54:47.105Z,12.50
2023-04-18T14:57:15.546Z,17.90
2023-04-18T14:59:43.771Z,16.40
2023-04-18T15:02:12.068Z,15.70
2023-04-18T15:04:40.642Z,12.40
2023-04-18T15:07:08.901Z,10.20
2023-04-18T15:09:37.758Z,15.00
2023-04-18T15:12:06.648Z,17.00
2023-04-18T15:14:35.993Z,13.50
2023-04-18T15:17:05.606Z,16.10
2023-04-18T15:19:34.597Z,24.90
2023-04-18T15:22:03.237Z,15.30
2023-04-18T15:24:31.477Z,13.10
2023-04-18T15:27:00.263Z,13.00
2023-04-18T15:29:29.280Z,14.00
2023-04-18T15:31:57.539Z,10.60
2023-04-18T15:34:26.455Z,12.90
2023-04-18T15:36:54.678Z,13.50
2023-04-18T15:39:23.753Z,10.10
2023-04-18T15:41:55.185Z,13.40
2023-04-18T15:44:23.384Z,11.00
2023-04-18T15:46:51.855Z,14.30
2023-04-18T15:49:20.487Z,13.70
2023-04-18T15:51:49.013Z,8.20
2023-04-18T15:54:17.269Z,10.90
2023-04-18T15:56:45.778Z,10.80
2023-04-18T15:59:13.963Z,7.20
2023-04-18T16:01:45.248Z,15.90
2023-04-18T16:04:14.882Z,9.90
2023-04-18T16:06:43.398Z,7.80
2023-04-18T16:09:11.683Z,10.00
2023-04-18T16:11:39.962Z,14.70
2023-04-18T16:14:08.192Z,12.50
2023-04-18T16:16:36.346Z,17.00
2023-04-18T16:19:05.579Z,10.00
2023-04-18T16:21:33.979Z,14.60
2023-04-18T16:24:02.410Z,9.00
2023-04-18T16:26:30.932Z,11.80
2023-04-18T16:28:59.252Z,10.90
2023-04-18T16:31:27.518Z,8.80
2023-04-18T16:33:56.191Z,7.00
2023-04-18T16:36:24.513Z,8.30
2023-04-18T16:38:52.756Z,11.20
2023-04-18T16:41:20.985Z,10.70
2023-04-18T16:43:49.255Z,8.70
2023-04-18T16:46:18.044Z,10.80
2023-04-18T16:48:46.760Z,9.60
2023-04-18T16:51:14.951Z,11.20
2023-04-18T16:53:44.729Z,13.70
2023-04-18T16:56:12.937Z,9.50
2023-04-18T16:58:41.293Z,10.90
2023-04-18T17:01:09.571Z,13.20
2023-04-18T17:03:38.027Z,11.50
2023-04-18T17:06:07.030Z,16.60
2023-04-18T17:08:36.056Z,14.10
2023-04-18T17:11:04.543Z,17.60
2023-04-18T17:13:32.882Z,19.80
2023-04-18T17:16:01.334Z,19.00
2023-04-18T17:18:29.787Z,18.00
2023-04-18T17:20:58.275Z,14.80
2023-04-18T17:23:26.592Z,16.30
2023-04-18T17:25:54.760Z,19.70
2023-04-18T17:28:23.864Z,16.40
2023-04-18T17:30:52.237Z,24.80
2023-04-18T17:33:21.226Z,22.10
2023-04-18T17:35:50.487Z,16.60
2023-04-18T17:38:18.866Z,19.50
2023-04-18T17:40:47.088Z,16.80
2023-04-18T17:43:15.260Z,16.30
2023-04-18T17:45:44.220Z,18.90
2023-04-18T17:48:12.942Z,18.70
2023-04-18T17:50:41.379Z,14.20
2023-04-18T17:53:09.638Z,13.80
2023-04-18T17:55:39.738Z,15.80
2023-04-18T17:58:08.011Z,13.30
2023-04-18T18:00:36.803Z,18.10
2023-04-18T18:03:05.323Z,15.80
2023-04-18T18:05:35.677Z,12.10
2023-04-18T18:08:04.222Z,17.50
2023-04-18T18:10:33.597Z,14.40
2023-04-18T18:13:02.168Z,14.70
2023-04-18T18:15:31.226Z,14.30
2023-04-18T18:17:59.816Z,15.80
2023-04-18T18:20:28.167Z,15.80
2023-04-18T18:22:59.946Z,15.00
2023-04-18T18:25:28.775Z,12.90
2023-04-18T18:27:57.217Z,11.10
2023-04-18T18:30:25.523Z,18.20
2023-04-18T18:32:54.526Z,14.90
2023-04-18T18:35:22.763Z,16.00
2023-04-18T18:37:51.352Z,14.20
2023-04-18T18:40:19.737Z,21.10
2023-04-18T18:42:51.450Z,12.70
2023-04-18T18:45:21.303Z,13.90
2023-04-18T18:47:49.552Z,17.00
2023-04-18T18:50:18.073Z,24.00
2023-04-18T18:52:46.366Z,19.00
2023-04-18T18:55:15.398Z,15.70
2023-04-18T18:57:43.635Z,17.20
2023-04-18T19:00:13.506Z,17.50
2023-04-18T19:02:42.406Z,17.40
2023-04-18T19:05:12.740Z,15.60
2023-04-18T19:07:42.519Z,25.20
2023-04-18T19:10:10.800Z,12.60
2023-04-18T19:12:38.994Z,13.60
2023-04-18T19:15:08.128Z,14.80
2023-04-18T19:17:36.793Z,13.70
2023-04-18T19:20:05.847Z,13.20
2023-04-18T19:22:34.736Z,14.20
2023-04-18T19:25:03.525Z,16.10
2023-04-18T19:27:31.727Z,13.50
2023-04-18T19:29:59.880Z,11.30
2023-04-18T19:32:28.200Z,10.30
2023-04-18T19:34:56.758Z,14.30
2023-04-18T19:37:25.139Z,12.20
2023-04-18T19:39:53.409Z,11.30
2023-04-18T19:42:21.728Z,11.10
2023-04-18T19:44:49.781Z,10.50
2023-04-18T19:47:17.956Z,11.60
2023-04-18T19:49:46.228Z,12.50
2023-04-18T19:52:14.761Z,12.10
2023-04-18T19:54:43.096Z,11.40
2023-04-18T19:57:11.924Z,11.00
2023-04-18T19:59:40.493Z,10.60
2023-04-18T20:02:09.301Z,14.30
2023-04-18T20:04:38.292Z,11.90
2023-04-18T20:07:06.684Z,14.80
2023-04-18T20:09:35.235Z,12.50
2023-04-18T20:12:03.725Z,11.70
2023-04-18T20:14:32.104Z,11.50
2023-04-18T20:17:00.315Z,12.90
2023-04-18T20:19:29.904Z,10.20
2023-04-18T20:21:58.209Z,8.90
2023-04-18T20:24:28.359Z,10.10
2023-04-18T20:26:59.014Z,13.20
2023-04-18T20:29:27.998Z,11.90
2023-04-18T20:31:56.255Z,10.20
2023-04-18T20:34:24.711Z,8.20
2023-04-18T20:36:53.185Z,10.90
2023-04-18T20:39:21.297Z,13.70
2023-04-18T20:41:50.822Z,12.50
2023-04-18T20:44:22.291Z,9.00
2023-04-18T20:46:52.059Z,14.20
2023-04-18T20:49:20.449Z,12.90
2023-04-18T20:51:48.603Z,10.00
2023-04-18T20:54:17.122Z,12.10
2023-04-18T20:56:45.576Z,11.60
2023-04-18T20:59:13.958Z,8.30
2023-04-18T21:01:42.787Z,11.90
2023-04-18T21:04:11.172Z,10.80
2023-04-18T21:06:39.612Z,12.20
2023-04-18T21:09:07.898Z,5.60
2023-04-18T21:11:36.171Z,4.80
2023-04-18T21:14:06.736Z,8.60
2023-04-18T21:16:36.059Z,11.30
2023-04-18T21:19:04.279Z,7.10
2023-04-18T21:21:34.430Z,10.50
2023-04-18T21:24:02.763Z,5.90
2023-04-18T21:26:31.031Z,11.10
2023-04-18T21:29:00.597Z,9.70
2023-04-18T21:31:29.937Z,6.20
2023-04-18T21:33:59.362Z,7.70
2023-04-18T21:36:28.292Z,10.20
2023-04-18T21:38:57.265Z,9.60
2023-04-18T21:41:26.086Z,9.40
2023-04-18T21:43:54.379Z,15.10
2023-04-18T21:46:22.800Z,7.70
2023-04-18T21:48:51.283Z,9.90
2023-04-18T21:51:19.585Z,6.70
2023-04-18T21:53:48.005Z,6.70
2023-04-18T21:56:17.025Z,8.60
2023-04-18T21:58:45.303Z,8.80
2023-04-18T22:01:13.581Z,7.80
2023-04-18T22:03:42.039Z,7.00
2023-04-18T22:06:10.629Z,12.20
2023-04-18T22:08:39.172Z,8.70
2023-04-18T22:11:09.284Z,10.70
2023-04-18T22:13:37.560Z,6.10
2023-04-18T22:16:08.406Z,7.90
2023-04-18T22:18:37.949Z,6.90
2023-04-18T22:21:06.974Z,8.90
2023-04-18T22:23:35.459Z,9.00
2023-04-18T22:26:03.737Z,6.80
2023-04-18T22:28:32.553Z,11.40
2023-04-18T22:31:01.002Z,9.70
2023-04-18T22:33:29.609Z,8.40
2023-04-18T22:35:59.324Z,11.10
2023-04-18T22:38:27.462Z,10.10
2023-04-18T22:40:55.878Z,7.30
2023-04-18T22:43:25.083Z,10.90
2023-04-18T22:45:53.180Z,7.20
2023-04-18T22:48:21.587Z,7.30
2023-04-18T22:50:50.146Z,10.20
2023-04-18T22:53:18.474Z,12.90
2023-04-18T22:55:46.852Z,11.20
2023-04-18T22:58:15.244Z,8.30
2023-04-18T23:00:43.655Z,9.80
2023-04-18T23:03:12.088Z,11.20
2023-04-18T23:05:41.267Z,7.10
2023-04-18T23:08:09.527Z,17.90
2023-04-18T23:10:38.420Z,12.60
2023-04-18T23:13:07.625Z,8.20
2023-04-18T23:15:35.805Z,10.00
2023-04-18T23:18:04.378Z,11.70
2023-04-18T23:20:32.983Z,9.30
2023-04-18T23:23:01.182Z,9.00
2023-04-18T23:25:33.349Z,12.70
2023-04-18T23:28:01.551Z,9.50
2023-04-18T23:30:30.210Z,9.60
2023-04-18T23:32:58.511Z,8.60
2023-04-18T23:35:26.760Z,13.10
2023-04-18T23:37:55.045Z,11.10
2023-04-18T23:40:23.339Z,12.20
2023-04-18T23:42:54.521Z,9.90
2023-04-18T23:45:24.535Z,14.20
2023-04-18T23:47:52.873Z,12.30
2023-04-18T23:50:21.266Z,10.40
2023-04-18T23:52:49.431Z,11.20
2023-04-18T23:55:17.503Z,12.00
2023-04-18T23:57:45.690Z,15.20
